Airfield :
LOGIN :

Register | Disclaimer

   EN    FR    IT 

 










Legend :    VFR   Marginal VFR   IFR   Intensive IFR   Very Intensive IFR
Visi :
Ceiling :
>= 8 km
>= 3000ft
5 to 8 km
1000 to 3000 ft
1500m to 5 km
500 to 1000 ft
800 to 1500m
200 to 500 ft
< 800m
< 200 ft
Symbols :   Thunderstorms  Fog  Heavy snow  Heavy precipitations  Wind > 20 kt
SIGMETs :     Misc.  Thunderstorms  Icing  Turbulence  Mountain Waves  Volcanic Ashes






- Airport Elevation : 0 ft


ENQC - Troll C Platform

CURRENT METAR :
  • 180450Z AUTO 14014KT 9999 FEW012/// BKN065/// BKN100/// 12/10 Q1005 W///S3

EXPIRED METARs :
  • 180420Z AUTO 14015KT 9999 FEW019/// BKN051/// OVC086/// 12/10 Q1005 W///S3
  • 180350Z AUTO 14015KT 9999 FEW015/// OVC050/// 12/10 Q1005 W///S3
  • 180320Z AUTO 14015KT 9999 BKN043/// OVC060/// 12/10 Q1005 W///S3
  • 180250Z AUTO 13018KT 9999 OVC027/// 13/10 Q1005 W///S3
  • 180220Z AUTO 12015KT 9999 BKN036/// BKN059/// 14/11 Q1005 W///S3
  • 180150Z AUTO 12016KT 9999 FEW024/// SCT034/// OVC058/// 14/11 Q1005 W///S3
  • 180120Z AUTO 11013KT 9999 SCT012/// BKN020/// BKN030/// 13/11 Q1005 W///S3
  • 180050Z AUTO 11011KT 9999 BKN011/// BKN027/// OVC051/// 14/11 Q1005 W///S3
  • 180020Z AUTO 11012KT 9999 OVC014/// 13/11 Q1006 W///S3

TAF N/A



MET'MAP, your aeronautical weather chart ! - Copyright ORBIFLY December 2007 - Disclaimer

ORBIFLY MET'MAP TEAM :

Programming & Development : Alexandra Zaïnal
Original concept : Baudouin d'Aumeries
Technical & hardware support : Manuel Goepfert
Assistance : Marc-Olivier Méhu




SOURCES & CREDITS :

   NOAA